Time;durP1;ratioP1;P1;durP2;ratioP2;P2;SDS_P1;SDS_P2;PMS_P1;PMS_P2;Temp;Humidity;BMP_temperature;BMP_pressure;BME280_temperature;BME280_humidity;BME280_pressure;Samples;Min_cycle;Max_cycle;Signal;HPM_P1;HPM_P2
2023/09/12 00:00:08;;;;;;;1999.90;999.90;;;21.00;99.90;;;;;;5000541;28;20171;-77
2023/09/12 00:02:34;;;;;;;1999.90;999.90;;;20.90;99.90;;;;;;4999733;28;20675;-77
2023/09/12 00:05:00;;;;;;;1999.90;999.90;;;20.90;99.90;;;;;;5000039;28;20459;-76
2023/09/12 00:07:25;;;;;;;1999.90;999.90;;;21.00;99.90;;;;;;5000152;28;20204;-77
2023/09/12 00:09:51;;;;;;;1999.90;999.90;;;21.10;99.90;;;;;;5000201;28;20193;-78
2023/09/12 00:12:17;;;;;;;1999.90;999.90;;;21.20;99.90;;;;;;5000163;28;20176;-78
2023/09/12 00:14:42;;;;;;;1999.90;999.90;;;21.20;99.90;;;;;;5001178;28;20199;-76
2023/09/12 00:17:09;;;;;;;1999.90;999.90;;;21.20;99.90;;;;;;4999089;28;20892;-76
2023/09/12 00:19:35;;;;;;;1999.90;999.90;;;21.30;99.90;;;;;;4994306;28;20652;-76
2023/09/12 00:22:00;;;;;;;1999.90;999.90;;;21.30;99.90;;;;;;4994138;28;20460;-76
2023/09/12 00:24:26;;;;;;;1999.90;999.90;;;21.30;99.90;;;;;;4993800;28;20555;-76
2023/09/12 00:26:51;;;;;;;1999.90;999.90;;;21.30;99.90;;;;;;4994383;28;20259;-76
2023/09/12 00:29:17;;;;;;;1999.90;999.90;;;21.40;99.90;;;;;;4994157;28;20657;-76
2023/09/12 00:31:42;;;;;;;1999.90;999.90;;;21.40;99.90;;;;;;4994126;28;20177;-76
2023/09/12 00:34:08;;;;;;;1999.90;999.90;;;21.20;99.90;;;;;;4993821;28;20256;-75
2023/09/12 00:36:34;;;;;;;1999.90;999.90;;;21.10;99.90;;;;;;4994466;28;20571;-76
2023/09/12 00:38:59;;;;;;;1999.90;999.90;;;21.10;99.90;;;;;;4993999;28;20232;-76
2023/09/12 00:41:25;;;;;;;1999.90;999.90;;;21.10;99.90;;;;;;4993941;28;20664;-76
2023/09/12 00:43:50;;;;;;;1999.90;999.90;;;21.10;99.90;;;;;;4993610;28;20196;-75
2023/09/12 00:46:21;;;;;;;1999.90;999.90;;;21.10;99.90;;;;;;4993864;28;20224;-76
2023/09/12 00:48:49;;;;;;;1999.90;999.90;;;21.10;99.90;;;;;;4993862;28;20170;-76
2023/09/12 00:51:17;;;;;;;1999.90;999.90;;;21.10;99.90;;;;;;4997038;28;20455;-78
2023/09/12 00:53:43;;;;;;;1999.90;999.90;;;21.10;99.90;;;;;;5001008;28;20440;-77
2023/09/12 00:56:10;;;;;;;1999.90;999.90;;;21.10;99.90;;;;;;5000281;28;20391;-76
2023/09/12 00:58:35;;;;;;;1999.90;999.90;;;21.20;99.90;;;;;;5000596;28;20424;-78
2023/09/12 01:01:02;;;;;;;1999.90;999.90;;;21.10;99.90;;;;;;4999802;28;20815;-78
2023/09/12 01:03:28;;;;;;;1999.90;999.90;;;21.10;99.90;;;;;;4999432;28;20655;-78
2023/09/12 01:05:54;;;;;;;1999.90;999.90;;;21.00;99.90;;;;;;4999585;28;20389;-78
2023/09/12 01:08:20;;;;;;;1999.90;999.90;;;20.90;99.90;;;;;;5000195;28;20383;-78
2023/09/12 01:10:47;;;;;;;1999.90;999.90;;;20.70;99.90;;;;;;4999181;28;20677;-78
2023/09/12 01:13:14;;;;;;;1999.90;999.90;;;20.60;99.90;;;;;;4999130;28;20442;-77
2023/09/12 01:15:40;;;;;;;1999.90;999.90;;;20.50;99.90;;;;;;4999183;28;20425;-78
2023/09/12 01:18:06;;;;;;;1999.90;999.90;;;20.50;99.90;;;;;;4996643;28;20834;-75
2023/09/12 01:20:35;;;;;;;1999.90;999.90;;;20.50;99.90;;;;;;4993125;28;20414;-75
2023/09/12 01:23:15;;;;;;;1999.90;999.90;;;20.40;99.90;;;;;;4992371;28;20169;-76
2023/09/12 01:26:02;;;;;;;1999.90;999.90;;;20.40;99.90;;;;;;4993098;28;20432;-76
2023/09/12 01:28:34;;;;;;;1999.90;999.90;;;20.30;99.90;;;;;;4993092;28;20491;-76
2023/09/12 01:31:02;;;;;;;1999.90;999.90;;;20.30;99.90;;;;;;4993047;28;20408;-76
2023/09/12 01:33:28;;;;;;;1999.90;999.90;;;20.30;99.90;;;;;;4992819;28;20434;-76
2023/09/12 01:35:54;;;;;;;1999.90;999.90;;;20.30;99.90;;;;;;4993016;28;20410;-76
2023/09/12 01:38:21;;;;;;;1999.90;999.90;;;20.40;99.90;;;;;;4992938;28;20997;-76
2023/09/12 01:40:50;;;;;;;1999.90;999.90;;;20.40;99.90;;;;;;4992900;28;20267;-76
2023/09/12 01:43:17;;;;;;;1999.90;999.90;;;20.50;99.90;;;;;;4992458;28;20427;-75
2023/09/12 01:45:45;;;;;;;1999.90;999.90;;;20.60;99.90;;;;;;4992807;28;20411;-76
2023/09/12 01:48:11;;;;;;;1999.90;999.90;;;20.60;99.90;;;;;;4994771;28;20394;-78
2023/09/12 01:50:38;;;;;;;1999.90;999.90;;;20.70;99.90;;;;;;4998212;28;20402;-78
2023/09/12 01:53:04;;;;;;;1999.90;999.90;;;20.80;99.90;;;;;;4999066;28;20458;-78
2023/09/12 01:55:30;;;;;;;1999.90;999.90;;;20.60;99.90;;;;;;4999211;28;20453;-78
2023/09/12 01:57:57;;;;;;;1999.90;999.90;;;20.50;99.90;;;;;;4999280;28;20408;-78
2023/09/12 02:00:23;;;;;;;1999.90;999.90;;;20.60;99.90;;;;;;4999089;28;20406;-78
2023/09/12 02:02:50;;;;;;;1999.90;999.90;;;20.40;99.90;;;;;;4998534;28;20456;-78
2023/09/12 02:05:18;;;;;;;1999.90;999.90;;;20.30;99.90;;;;;;4998771;28;20428;-78
2023/09/12 02:07:45;;;;;;;1999.90;999.90;;;20.20;99.90;;;;;;4999067;28;20513;-77
2023/09/12 02:10:10;;;;;;;1999.90;999.90;;;20.20;99.90;;;;;;4999482;28;20429;-77
2023/09/12 02:12:36;;;;;;;1999.90;999.90;;;20.20;99.90;;;;;;4996360;28;20476;-76
2023/09/12 02:15:02;;;;;;;1999.90;999.90;;;20.20;99.90;;;;;;4992438;28;20198;-76
2023/09/12 02:17:28;;;;;;;1999.90;999.90;;;20.30;99.90;;;;;;4992402;28;20442;-76
2023/09/12 02:19:53;;;;;;;1999.90;999.90;;;20.30;99.90;;;;;;4992479;28;20446;-75
2023/09/12 02:22:19;;;;;;;1999.90;999.90;;;20.30;99.90;;;;;;4992313;28;20259;-75
2023/09/12 02:24:45;;;;;;;1999.90;999.90;;;20.40;99.90;;;;;;4992095;28;20707;-76
2023/09/12 02:27:10;;;;;;;1999.90;999.90;;;20.40;99.90;;;;;;4992330;28;20172;-77
2023/09/12 02:29:38;;;;;;;1999.90;999.90;;;20.40;99.90;;;;;;4992382;28;20168;-76
2023/09/12 02:32:04;;;;;;;1999.90;999.90;;;20.50;99.90;;;;;;4992355;28;20703;-76
2023/09/12 02:34:29;;;;;;;1999.90;999.90;;;20.50;99.90;;;;;;4992069;28;20510;-75
2023/09/12 02:36:55;;;;;;;1999.90;999.90;;;20.60;99.90;;;;;;4995748;28;20427;-76
2023/09/12 02:39:20;;;;;;;1999.90;999.90;;;20.60;99.90;;;;;;4996258;28;20175;-76
2023/09/12 02:41:46;;;;;;;1999.90;999.90;;;20.50;99.90;;;;;;4995967;28;20192;-75
2023/09/12 02:44:11;;;;;;;1999.90;999.90;;;20.40;99.90;;;;;;4995815;28;20195;-75
2023/09/12 02:46:37;;;;;;;1999.90;999.90;;;20.30;99.90;;;;;;4996121;28;20167;-76
2023/09/12 02:49:03;;;;;;;1999.90;999.90;;;20.40;99.90;;;;;;4996049;28;20695;-76
2023/09/12 02:51:29;;;;;;;1999.90;999.90;;;20.40;99.90;;;;;;4996088;28;20185;-76
2023/09/12 02:53:55;;;;;;;1999.90;999.90;;;20.40;99.90;;;;;;4995657;28;20191;-76
2023/09/12 02:56:20;;;;;;;1999.90;999.90;;;20.30;99.90;;;;;;4995890;28;20810;-76
2023/09/12 02:58:46;;;;;;;1999.90;999.90;;;20.20;99.90;;;;;;4996143;28;20172;-75
2023/09/12 03:01:19;;;;;;;1999.90;999.90;;;20.10;99.90;;;;;;4995829;28;20496;-75
2023/09/12 03:03:49;;;;;;;1999.90;999.90;;;20.00;99.90;;;;;;4995455;28;20423;-76
2023/09/12 03:06:15;;;;;;;1999.90;999.90;;;20.10;99.90;;;;;;4995774;28;20403;-75
2023/09/12 03:08:42;;;;;;;1999.90;999.90;;;20.10;99.90;;;;;;4995662;28;20418;-76
2023/09/12 03:11:08;;;;;;;1999.90;999.90;;;20.10;99.90;;;;;;4995656;28;20506;-76
2023/09/12 03:13:34;;;;;;;1999.90;999.90;;;20.10;99.90;;;;;;4995474;28;20571;-76
2023/09/12 03:16:00;;;;;;;1999.90;999.90;;;20.10;99.90;;;;;;4995607;28;20250;-76
2023/09/12 03:18:26;;;;;;;1999.90;999.90;;;20.20;99.90;;;;;;4995595;28;20799;-76
2023/09/12 03:20:52;;;;;;;1999.90;999.90;;;20.30;99.90;;;;;;4995452;28;20385;-76
2023/09/12 03:23:18;;;;;;;1999.90;999.90;;;20.20;99.90;;;;;;4995076;28;20783;-76
2023/09/12 03:25:44;;;;;;;1999.90;999.90;;;20.20;99.90;;;;;;4995279;28;20540;-76
2023/09/12 03:28:11;;;;;;;1999.90;999.90;;;20.10;99.90;;;;;;4995545;28;20481;-76
2023/09/12 03:30:37;;;;;;;1999.90;999.90;;;20.10;99.90;;;;;;4995402;28;20410;-75
2023/09/12 03:33:04;;;;;;;1999.90;999.90;;;20.10;99.90;;;;;;4994927;28;20207;-75
2023/09/12 03:35:32;;;;;;;1999.90;999.90;;;20.20;99.90;;;;;;4995193;28;20407;-76
2023/09/12 03:37:57;;;;;;;1999.90;999.90;;;20.20;99.90;;;;;;4995122;28;20416;-76
2023/09/12 03:40:23;;;;;;;1999.90;999.90;;;20.20;99.90;;;;;;4995149;28;20494;-76
2023/09/12 03:42:48;;;;;;;1999.90;999.90;;;20.20;99.90;;;;;;4994622;28;20262;-76
2023/09/12 03:45:14;;;;;;;1999.90;999.90;;;20.30;99.90;;;;;;4995043;28;20168;-76
2023/09/12 03:47:40;;;;;;;1999.90;999.90;;;20.30;99.90;;;;;;4994471;28;20172;-77
2023/09/12 03:50:06;;;;;;;1999.90;999.90;;;20.40;99.90;;;;;;4994992;28;20549;-75
2023/09/12 03:52:31;;;;;;;1999.90;999.90;;;20.40;99.90;;;;;;4994687;28;20567;-76
2023/09/12 03:54:57;;;;;;;1999.90;999.90;;;20.30;99.90;;;;;;4994773;28;20439;-76
2023/09/12 03:57:23;;;;;;;1999.90;999.90;;;20.40;99.90;;;;;;4994829;28;20623;-75
2023/09/12 03:59:48;;;;;;;1999.90;999.90;;;20.50;99.90;;;;;;4994760;28;20261;-76
2023/09/12 04:02:14;;;;;;;1999.90;999.90;;;20.50;99.90;;;;;;4994636;28;20687;-76
2023/09/12 04:04:39;;;;;;;1999.90;999.90;;;20.60;99.90;;;;;;4994450;28;20191;-76
2023/09/12 04:07:05;;;;;;;1999.90;999.90;;;20.60;99.90;;;;;;4994601;28;20619;-75
2023/09/12 04:09:31;;;;;;;1999.90;999.90;;;20.60;99.90;;;;;;4994535;28;20176;-75
2023/09/12 04:11:57;;;;;;;1999.90;999.90;;;20.60;99.90;;;;;;4994625;28;20180;-76
2023/09/12 04:14:22;;;;;;;1999.90;999.90;;;20.60;99.90;;;;;;4994202;28;20410;-76
2023/09/12 04:16:48;;;;;;;1999.90;999.90;;;20.60;99.90;;;;;;4994448;28;20216;-76
2023/09/12 04:19:14;;;;;;;1999.90;999.90;;;20.70;99.90;;;;;;4994430;28;20216;-75
2023/09/12 04:21:40;;;;;;;1999.90;999.90;;;20.70;99.90;;;;;;4994326;28;20204;-76
2023/09/12 04:24:07;;;;;;;1999.90;999.90;;;20.70;99.90;;;;;;4993850;28;21104;-75
2023/09/12 04:26:33;;;;;;;1999.90;999.90;;;20.70;99.90;;;;;;4994321;28;20389;-75
2023/09/12 04:28:58;;;;;;;1999.90;999.90;;;20.70;99.90;;;;;;4994216;28;20387;-76
2023/09/12 04:31:24;;;;;;;1999.90;999.90;;;20.70;99.90;;;;;;4994199;28;20215;-76
2023/09/12 04:33:53;;;;;;;1999.90;999.90;;;20.60;99.90;;;;;;4993818;28;20199;-76
2023/09/12 04:36:20;;;;;;;1999.90;999.90;;;20.50;99.90;;;;;;4994043;28;20415;-75
2023/09/12 04:38:45;;;;;;;1999.90;999.90;;;20.40;99.90;;;;;;4993980;28;20415;-76
2023/09/12 04:41:16;;;;;;;1999.90;999.90;;;20.20;99.90;;;;;;4993958;28;20839;-76
2023/09/12 04:43:43;;;;;;;1999.90;999.90;;;20.20;99.90;;;;;;4993705;28;20206;-76
2023/09/12 04:46:08;;;;;;;1999.90;999.90;;;20.10;99.90;;;;;;4994288;28;20468;-76
2023/09/12 04:48:34;;;;;;;1999.90;999.90;;;20.10;99.90;;;;;;5001530;28;20479;-78
2023/09/12 04:51:00;;;;;;;1999.90;999.90;;;20.00;99.90;;;;;;5003081;28;20180;-78
2023/09/12 04:53:25;;;;;;;1999.90;999.90;;;20.00;99.90;;;;;;5001267;28;20225;-77
2023/09/12 04:55:54;;;;;;;1999.90;999.90;;;19.80;99.90;;;;;;5001682;28;20564;-76
2023/09/12 04:58:19;;;;;;;1999.90;999.90;;;19.80;99.90;;;;;;5000543;28;20206;-78
2023/09/12 05:00:45;;;;;;;1999.90;999.90;;;19.70;99.90;;;;;;5002081;28;20389;-78
2023/09/12 05:03:11;;;;;;;1999.90;999.90;;;19.70;99.90;;;;;;5002369;28;20240;-76
2023/09/12 05:05:37;;;;;;;1999.90;999.90;;;19.60;99.90;;;;;;5003220;28;20182;-78
2023/09/12 05:08:03;;;;;;;1999.90;999.90;;;19.60;99.90;;;;;;5002450;28;20743;-78
2023/09/12 05:10:29;;;;;;;1999.90;999.90;;;19.50;99.90;;;;;;5002748;28;20166;-78
2023/09/12 05:12:55;;;;;;;1999.90;999.90;;;19.40;99.90;;;;;;5001843;28;20404;-78
2023/09/12 05:15:20;;;;;;;1999.90;999.90;;;19.40;99.90;;;;;;5001646;28;20840;-78
2023/09/12 05:17:46;;;;;;;1999.90;999.90;;;19.40;99.90;;;;;;5000280;28;20646;-77
2023/09/12 05:20:12;;;;;;;1999.90;999.90;;;19.50;99.90;;;;;;5002788;28;20177;-77
2023/09/12 05:22:37;;;;;;;1999.90;999.90;;;19.50;99.90;;;;;;5004567;28;20253;-77
2023/09/12 05:25:03;;;;;;;1999.90;999.90;;;19.60;99.90;;;;;;5004122;28;20218;-78
2023/09/12 05:27:29;;;;;;;1999.90;999.90;;;19.60;99.90;;;;;;5004014;28;20246;-78
2023/09/12 05:29:54;;;;;;;1999.90;999.90;;;19.70;99.90;;;;;;5003643;28;20410;-77
2023/09/12 05:32:20;;;;;;;1999.90;999.90;;;19.80;99.90;;;;;;5002972;28;20591;-76
2023/09/12 05:34:49;;;;;;;1999.90;999.90;;;20.00;99.90;;;;;;5001787;28;20195;-76
2023/09/12 05:37:15;;;;;;;1999.90;999.90;;;20.00;99.90;;;;;;5002539;28;20683;-77
2023/09/12 05:39:40;;;;;;;1999.90;999.90;;;20.10;99.90;;;;;;5002849;28;20420;-77
2023/09/12 05:42:06;;;;;;;1999.90;999.90;;;20.20;99.90;;;;;;5001899;28;20230;-75
2023/09/12 05:44:32;;;;;;;1999.90;999.90;;;20.30;99.90;;;;;;5000520;28;20192;-76
2023/09/12 05:46:57;;;;;;;1999.90;999.90;;;20.40;99.90;;;;;;4997279;28;20581;-78
2023/09/12 05:49:23;;;;;;;1999.90;999.90;;;20.40;99.90;;;;;;4995906;28;21046;-77
2023/09/12 05:51:49;;;;;;;1999.90;999.90;;;20.20;99.90;;;;;;4993427;28;20165;-74
2023/09/12 05:54:15;;;;;;;1999.90;999.90;;;20.10;99.90;;;;;;4989877;28;20192;-75
2023/09/12 05:56:41;;;;;;;1999.90;999.90;;;20.00;99.90;;;;;;4997803;28;20171;-75
2023/09/12 05:59:06;;;;;;;1999.90;999.90;;;20.00;99.90;;;;;;5007585;28;20397;-74
2023/09/12 06:01:32;;;;;;;1999.90;999.90;;;19.90;99.90;;;;;;5004012;28;20189;-75
2023/09/12 06:03:57;;;;;;;1999.90;999.90;;;19.80;99.90;;;;;;5011877;28;20573;-74
2023/09/12 06:06:23;;;;;;;1999.90;999.90;;;19.70;99.90;;;;;;5012164;28;20229;-74
2023/09/12 06:08:49;;;;;;;1999.90;999.90;;;19.70;99.90;;;;;;5008558;28;20172;-75
2023/09/12 06:11:14;;;;;;;1999.90;999.90;;;19.60;99.90;;;;;;5001462;28;20174;-74
2023/09/12 06:13:40;;;;;;;1999.90;999.90;;;19.70;99.90;;;;;;5006141;28;20685;-74
2023/09/12 06:16:06;;;;;;;1999.90;999.90;;;19.70;99.90;;;;;;5003877;28;20171;-74
2023/09/12 06:18:35;;;;;;;1999.90;999.90;;;19.70;99.90;;;;;;5012088;28;20513;-74
2023/09/12 06:21:06;;;;;;;1999.90;999.90;;;19.80;99.90;;;;;;5012017;28;20880;-76
2023/09/12 06:23:31;;;;;;;1999.90;999.90;;;19.80;99.90;;;;;;5011738;28;20502;-75
2023/09/12 06:25:57;;;;;;;1999.90;999.90;;;20.00;99.90;;;;;;5003641;28;20955;-75
2023/09/12 06:28:30;;;;;;;1999.90;999.90;;;20.20;99.90;;;;;;4999858;28;20241;-75
2023/09/12 06:30:59;;;;;;;1999.90;999.90;;;20.40;99.90;;;;;;4992354;28;20165;-73
2023/09/12 06:33:25;;;;;;;1999.90;999.90;;;20.50;99.90;;;;;;4992016;28;20450;-75
2023/09/12 06:35:52;;;;;;;1999.90;999.90;;;20.50;99.90;;;;;;4992312;28;20461;-73
2023/09/12 06:38:18;;;;;;;1999.90;999.90;;;20.70;99.90;;;;;;4992298;28;20499;-73
2023/09/12 06:40:45;;;;;;;1999.90;999.90;;;20.80;99.90;;;;;;4992277;28;20870;-73
2023/09/12 06:43:10;;;;;;;1999.90;999.90;;;20.80;99.90;;;;;;4991976;28;20430;-75
2023/09/12 06:45:37;;;;;;;1999.90;999.90;;;20.90;99.90;;;;;;4992265;28;20809;-73
2023/09/12 06:48:04;;;;;;;1999.90;999.90;;;21.10;99.90;;;;;;4992199;28;20173;-77
2023/09/12 06:50:29;;;;;;;1999.90;999.90;;;21.20;99.90;;;;;;4992142;28;20419;-74
2023/09/12 06:52:55;;;;;;;1999.90;999.90;;;21.30;99.90;;;;;;4991836;28;20379;-74
2023/09/12 06:55:20;;;;;;;1999.90;999.90;;;21.40;99.90;;;;;;4992116;28;20177;-74
2023/09/12 06:57:46;;;;;;;1999.90;999.90;;;21.50;99.90;;;;;;4992151;28;20206;-74
2023/09/12 07:00:12;;;;;;;1999.90;999.90;;;21.50;99.90;;;;;;4992032;28;20173;-74
2023/09/12 07:02:38;;;;;;;1999.90;999.90;;;21.60;99.90;;;;;;4990416;28;20695;-73
2023/09/12 07:05:04;;;;;;;1999.90;999.90;;;21.70;99.90;;;;;;4986673;28;20463;-72
2023/09/12 07:07:30;;;;;;;1999.90;999.90;;;21.60;99.90;;;;;;5001749;28;20679;-75
2023/09/12 07:09:56;;;;;;;1999.90;999.90;;;21.60;99.90;;;;;;4999944;28;20468;-76
2023/09/12 07:12:22;;;;;;;1999.90;999.90;;;21.70;99.90;;;;;;4994597;28;20383;-74
2023/09/12 07:14:50;;;;;;;1999.90;999.90;;;21.80;99.90;;;;;;5006890;28;20446;-75
2023/09/12 07:17:17;;;;;;;1999.90;999.90;;;21.80;99.90;;;;;;4988429;28;20603;-75
2023/09/12 07:19:43;;;;;;;1999.90;999.90;;;21.90;99.90;;;;;;5003230;28;20763;-75
2023/09/12 07:22:08;;;;;;;1999.90;999.90;;;21.90;99.90;;;;;;5004739;28;20455;-76
2023/09/12 07:24:34;;;;;;;1999.90;999.90;;;21.90;99.90;;;;;;4997795;28;20205;-73
2023/09/12 07:27:00;;;;;;;1999.90;999.90;;;22.00;99.90;;;;;;5007470;28;20184;-75
2023/09/12 07:29:26;;;;;;;1999.90;999.90;;;22.00;99.90;;;;;;5002807;28;20180;-76
2023/09/12 07:31:55;;;;;;;1999.90;999.90;;;22.00;99.90;;;;;;4995360;28;20193;-75
2023/09/12 07:34:21;;;;;;;1999.90;999.90;;;22.10;99.90;;;;;;5002909;28;20891;-73
2023/09/12 07:36:47;;;;;;;1999.90;999.90;;;22.20;99.90;;;;;;5010121;28;20495;-73
2023/09/12 07:39:12;;;;;;;1999.90;999.90;;;22.30;99.90;;;;;;5015422;28;20494;-77
2023/09/12 07:41:38;;;;;;;1999.90;999.90;;;22.30;99.90;;;;;;5015552;28;20204;-77
2023/09/12 07:44:04;;;;;;;1999.90;999.90;;;22.40;99.90;;;;;;5001954;28;20276;-76
2023/09/12 07:46:30;;;;;;;1999.90;999.90;;;22.60;99.90;;;;;;5010932;28;20204;-76
2023/09/12 07:48:56;;;;;;;1999.90;999.90;;;22.60;99.90;;;;;;5019119;28;20799;-75
2023/09/12 07:51:22;;;;;;;1999.90;999.90;;;22.70;99.90;;;;;;5019149;28;20418;-77
2023/09/12 07:53:48;;;;;;;1999.90;999.90;;;22.80;99.90;;;;;;5019531;28;20200;-75
2023/09/12 07:56:14;;;;;;;1999.90;999.90;;;22.80;99.90;;;;;;5007765;28;20420;-75
2023/09/12 07:58:39;;;;;;;1999.90;999.90;;;22.80;99.90;;;;;;5006114;28;20264;-77
2023/09/12 08:01:06;;;;;;;1999.90;999.90;;;22.90;99.90;;;;;;5013920;28;20211;-77
2023/09/12 08:03:33;;;;;;;1999.90;999.90;;;22.90;99.90;;;;;;5009622;28;20199;-77
2023/09/12 08:05:59;;;;;;;1999.90;999.90;;;22.80;99.90;;;;;;5009885;28;20387;-77
2023/09/12 08:08:25;;;;;;;1999.90;999.90;;;22.80;99.90;;;;;;5018571;28;20921;-77
2023/09/12 08:10:50;;;;;;;1999.90;999.90;;;22.80;99.90;;;;;;5007435;28;20176;-75
2023/09/12 08:13:16;;;;;;;1999.90;999.90;;;22.80;99.90;;;;;;5005586;28;20673;-73
2023/09/12 08:15:41;;;;;;;1999.90;999.90;;;22.70;99.90;;;;;;5014103;28;20165;-74
2023/09/12 08:18:07;;;;;;;1999.90;999.90;;;22.70;99.90;;;;;;5003632;28;20638;-74
2023/09/12 08:20:32;;;;;;;1999.90;999.90;;;22.60;99.90;;;;;;5013956;28;20168;-75
2023/09/12 08:22:58;;;;;;;1999.90;999.90;;;22.60;99.90;;;;;;5013526;28;20735;-74
2023/09/12 08:25:24;;;;;;;1999.90;999.90;;;22.60;99.90;;;;;;5012547;28;20185;-74
2023/09/12 08:27:50;;;;;;;1999.90;999.90;;;22.60;99.90;;;;;;5014074;28;20625;-73
2023/09/12 08:30:16;;;;;;;1999.90;999.90;;;22.60;99.90;;;;;;5013840;28;20382;-73
2023/09/12 08:32:45;;;;;;;1999.90;999.90;;;22.70;99.90;;;;;;5013491;28;20216;-72
2023/09/12 08:35:12;;;;;;;1999.90;999.90;;;22.70;99.90;;;;;;5013672;28;20391;-73
2023/09/12 08:37:39;;;;;;;1999.90;999.90;;;22.80;99.90;;;;;;5013620;28;20886;-72
2023/09/12 08:40:08;;;;;;;1999.90;999.90;;;22.90;99.90;;;;;;5013643;28;20415;-74
2023/09/12 08:42:41;;;;;;;1999.90;999.90;;;23.00;99.90;;;;;;5013241;28;20795;-73
2023/09/12 08:45:12;;;;;;;1999.90;999.90;;;23.10;99.90;;;;;;5009484;28;20420;-74
2023/09/12 08:47:41;;;;;;;1999.90;999.90;;;23.10;99.90;;;;;;5003733;28;20381;-74
2023/09/12 08:50:13;;;;;;;1999.90;999.90;;;22.90;99.90;;;;;;5005285;28;20435;-73
2023/09/12 08:52:41;;;;;;;1999.90;999.90;;;22.80;99.90;;;;;;5007330;28;20386;-73
2023/09/12 08:55:07;;;;;;;1999.90;999.90;;;22.90;99.90;;;;;;5010681;28;20439;-75
2023/09/12 08:57:35;;;;;;;1999.90;999.90;;;22.70;99.90;;;;;;4988236;28;20400;-74
2023/09/12 09:00:06;;;;;;;1999.90;999.90;;;22.70;99.90;;;;;;5007328;28;20403;-75
2023/09/12 09:02:36;;;;;;;1999.90;999.90;;;22.60;99.90;;;;;;4981731;28;20431;-75
2023/09/12 09:05:05;;;;;;;1999.90;999.90;;;22.60;99.90;;;;;;4986689;28;20479;-74
2023/09/12 09:07:39;;;;;;;1999.90;999.90;;;22.70;99.90;;;;;;5000254;28;20485;-75
2023/09/12 09:10:07;;;;;;;1999.90;999.90;;;23.00;99.90;;;;;;4998431;28;20471;-75
2023/09/12 09:12:35;;;;;;;1999.90;999.90;;;22.90;99.90;;;;;;5002815;28;20379;-74
2023/09/12 09:15:21;;;;;;;1999.90;999.90;;;22.90;99.90;;;;;;5004601;28;20906;-75
2023/09/12 09:17:47;;;;;;;1999.90;999.90;;;23.00;99.90;;;;;;4996075;28;20404;-75
2023/09/12 09:20:32;;;;;;;1999.90;999.90;;;23.10;99.90;;;;;;5011054;28;20755;-75
2023/09/12 09:23:00;;;;;;;1999.90;999.90;;;23.30;99.90;;;;;;5012470;28;20471;-75
2023/09/12 09:25:25;;;;;;;1999.90;999.90;;;23.20;99.90;;;;;;5012652;28;20437;-75
2023/09/12 09:27:51;;;;;;;1999.90;999.90;;;23.20;99.90;;;;;;4996737;28;20863;-74
2023/09/12 09:30:18;;;;;;;1999.90;999.90;;;23.20;99.90;;;;;;4977804;28;20178;-74
2023/09/12 09:32:45;;;;;;;1999.90;999.90;;;23.20;99.90;;;;;;5000182;28;20653;-75
2023/09/12 09:35:11;;;;;;;1999.90;999.90;;;23.20;99.90;;;;;;4999889;28;20408;-75
2023/09/12 09:37:37;;;;;;;1999.90;999.90;;;23.20;99.90;;;;;;5001484;28;20503;-75
2023/09/12 09:40:06;;;;;;;1999.90;999.90;;;23.40;99.90;;;;;;5003917;28;20552;-74
2023/09/12 09:42:32;;;;;;;1999.90;999.90;;;23.30;99.90;;;;;;4998589;28;20430;-75
2023/09/12 09:44:57;;;;;;;1999.90;999.90;;;23.30;99.90;;;;;;4985924;28;20414;-75
2023/09/12 09:47:23;;;;;;;1999.90;999.90;;;23.30;99.90;;;;;;4988427;28;20533;-74
2023/09/12 09:49:51;;;;;;;1999.90;999.90;;;23.50;99.90;;;;;;4997715;28;20176;-75
2023/09/12 09:52:26;;;;;;;1999.90;999.90;;;23.70;99.90;;;;;;5004073;28;20173;-75
2023/09/12 09:54:52;;;;;;;1999.90;999.90;;;23.90;99.90;;;;;;5004767;28;20436;-75
2023/09/12 09:57:17;;;;;;;1999.90;999.90;;;23.80;99.90;;;;;;5010916;28;20894;-75
2023/09/12 09:59:49;;;;;;;1999.90;999.90;;;23.90;99.90;;;;;;4996522;28;20177;-74
2023/09/12 10:02:21;;;;;;;1999.90;999.90;;;23.90;99.90;;;;;;5004390;28;20204;-74
2023/09/12 10:04:48;;;;;;;1999.90;999.90;;;24.00;99.90;;;;;;5003776;28;20416;-75
2023/09/12 10:07:14;;;;;;;1999.90;999.90;;;24.00;99.90;;;;;;4986475;28;20405;-75
2023/09/12 10:09:41;;;;;;;1999.90;999.90;;;23.90;99.90;;;;;;5001659;28;20924;-74
2023/09/12 10:12:08;;;;;;;1999.90;999.90;;;24.00;99.90;;;;;;5000907;28;20395;-75
2023/09/12 10:14:35;;;;;;;1999.90;999.90;;;24.20;99.90;;;;;;4998098;28;20445;-75
2023/09/12 10:17:02;;;;;;;1999.90;999.90;;;24.30;99.90;;;;;;5001113;28;20769;-73
2023/09/12 10:19:53;;;;;;;1999.90;999.90;;;24.40;99.90;;;;;;4978497;28;20806;-75
2023/09/12 10:22:24;;;;;;;1999.90;999.90;;;24.40;99.90;;;;;;4992402;28;20463;-75
2023/09/12 10:24:51;;;;;;;1999.90;999.90;;;24.20;99.90;;;;;;4987396;28;20876;-74
2023/09/12 10:27:19;;;;;;;1999.90;999.90;;;24.20;99.90;;;;;;4994536;28;20404;-73
2023/09/12 10:29:47;;;;;;;1999.90;999.90;;;24.40;99.90;;;;;;5000180;28;20494;-75
2023/09/12 10:32:15;;;;;;;1999.90;999.90;;;24.40;99.90;;;;;;4999488;28;20473;-71
2023/09/12 10:34:44;;;;;;;1999.90;999.90;;;24.60;99.90;;;;;;5000729;28;20450;-76
2023/09/12 10:37:15;;;;;;;1999.90;999.90;;;24.50;99.90;;;;;;5004741;28;20799;-76
2023/09/12 10:39:43;;;;;;;1999.90;999.90;;;24.60;99.90;;;;;;4991378;28;20461;-77
2023/09/12 10:42:10;;;;;;;1999.90;999.90;;;24.60;99.90;;;;;;5003347;28;20465;-73
2023/09/12 10:44:36;;;;;;;1999.90;999.90;;;24.80;99.90;;;;;;4997564;28;20403;-75
2023/09/12 10:47:04;;;;;;;1999.90;999.90;;;24.90;99.90;;;;;;4993684;28;20421;-75
2023/09/12 10:49:30;;;;;;;1999.90;999.90;;;25.00;99.90;;;;;;4998860;28;20753;-74
2023/09/12 10:51:57;;;;;;;1999.90;999.90;;;25.10;99.90;;;;;;5007889;28;20408;-75
2023/09/12 10:54:25;;;;;;;1999.90;999.90;;;25.20;99.90;;;;;;5007106;28;20424;-76
2023/09/12 10:57:07;;;;;;;1999.90;999.90;;;25.20;99.90;;;;;;5009142;28;20470;-75
2023/09/12 10:59:36;;;;;;;1999.90;999.90;;;25.30;99.90;;;;;;5011180;28;20461;-75
2023/09/12 11:02:33;;;;;;;1999.90;999.90;;;25.50;99.90;;;;;;5011347;28;20891;-73
2023/09/12 11:04:59;;;;;;;1999.90;999.90;;;25.40;99.90;;;;;;5012005;28;21037;-75
2023/09/12 11:07:33;;;;;;;1999.90;999.90;;;25.60;99.90;;;;;;5011357;28;20392;-76
2023/09/12 11:10:19;;;;;;;1999.90;999.90;;;26.20;99.90;;;;;;5011174;28;20411;-75
2023/09/12 11:12:56;;;;;;;1999.90;999.90;;;26.50;99.90;;;;;;5011089;28;20503;-75
2023/09/12 11:15:25;;;;;;;1999.90;999.90;;;26.80;99.90;;;;;;5011434;28;20667;-75
2023/09/12 11:18:01;;;;;;;1999.90;999.90;;;27.20;99.90;;;;;;5010979;28;20797;-76
2023/09/12 11:20:46;;;;;;;1999.90;999.90;;;27.70;99.90;;;;;;5010845;28;20919;-76
2023/09/12 11:23:12;;;;;;;1999.90;999.90;;;27.60;99.90;;;;;;5010600;28;20819;-75
2023/09/12 11:25:37;;;;;;;1999.90;999.90;;;27.30;99.90;;;;;;5010756;28;20466;-76
2023/09/12 11:28:04;;;;;;;1999.90;999.90;;;27.20;99.90;;;;;;5011591;28;20181;-75
2023/09/12 11:30:34;;;;;;;1999.90;999.90;;;26.90;99.90;;;;;;5010767;28;20262;-75
2023/09/12 11:33:04;;;;;;;1999.90;999.90;;;26.80;99.90;;;;;;5010296;28;20911;-75
2023/09/12 11:35:35;;;;;;;1999.90;999.90;;;27.00;99.90;;;;;;5010683;28;20404;-75
2023/09/12 11:38:02;;;;;;;1999.90;999.90;;;27.30;99.90;;;;;;5011419;28;20430;-75
2023/09/12 11:40:33;;;;;;;1999.90;999.90;;;27.50;99.90;;;;;;5010735;28;20517;-75
2023/09/12 11:43:00;;;;;;;1999.90;999.90;;;27.70;99.90;;;;;;5010049;28;20451;-76
2023/09/12 11:45:27;;;;;;;1999.90;999.90;;;28.10;99.90;;;;;;5010443;28;20510;-73
2023/09/12 11:47:53;;;;;;;1999.90;999.90;;;28.80;99.90;;;;;;5011256;28;20437;-77
2023/09/12 11:50:31;;;;;;;1999.90;999.90;;;29.60;99.90;;;;;;5010361;28;20958;-76
2023/09/12 11:53:07;;;;;;;1999.90;999.90;;;30.20;99.90;;;;;;5010284;28;20428;-76
2023/09/12 11:55:36;;;;;;;1999.90;999.90;;;29.80;96.80;;;;;;5010307;28;20474;-76
2023/09/12 11:58:03;;;;;;;1999.90;999.90;;;29.70;97.90;;;;;;5010146;28;20915;-76